Time;durP1;ratioP1;P1;durP2;ratioP2;P2;SDS_P1;SDS_P2;PMS_P1;PMS_P2;Temp;Humidity;BMP_temperature;BMP_pressure;BME280_temperature;BME280_humidity;BME280_pressure;Samples;Min_cycle;Max_cycle;Signal;HPM_P1;HPM_P2
2021/03/03 00:01:49;;;;;;;27.80;12.23;;;;;;;14.61;59.48;101445.06;4958683;28;20074;-77
2021/03/03 00:04:15;;;;;;;25.40;11.63;;;;;;;14.61;59.50;101453.50;4959252;28;20063;-73
2021/03/03 00:06:42;;;;;;;29.77;10.83;;;;;;;14.55;59.55;101437.75;4959248;28;20043;-73
2021/03/03 00:09:11;;;;;;;23.63;11.10;;;;;;;14.55;59.47;101446.19;4960763;28;20073;-73
2021/03/03 00:11:37;;;;;;;21.33;10.40;;;;;;;14.48;59.66;101445.63;4958221;28;20062;-73
2021/03/03 00:14:06;;;;;;;20.53;9.60;;;;;;;14.34;60.13;101446.22;4960456;28;20419;-75
2021/03/03 00:16:36;;;;;;;22.83;11.10;;;;;;;14.31;60.18;101443.97;4957514;28;20050;-73
2021/03/03 00:19:04;;;;;;;23.77;10.17;;;;;;;14.33;60.06;101438.91;4956559;28;20047;-72
2021/03/03 00:21:34;;;;;;;26.15;10.02;;;;;;;14.23;60.03;101428.53;4955862;28;20055;-69
2021/03/03 00:24:01;;;;;;;19.57;8.67;;;;;;;14.25;60.10;101442.28;4958150;28;20111;-69
2021/03/03 00:26:28;;;;;;;23.00;9.60;;;;;;;14.26;60.11;101452.41;4958467;28;20507;-73
2021/03/03 00:28:57;;;;;;;16.80;9.43;;;;;;;14.21;59.97;101435.56;4961748;28;20043;-72
2021/03/03 00:31:44;;;;;;;16.38;7.65;;;;;;;14.20;60.06;101442.31;4952875;28;20113;-71
2021/03/03 00:34:10;;;;;;;11.77;7.10;;;;;;;14.19;60.05;101440.63;4960436;28;20054;-70
2021/03/03 00:36:37;;;;;;;16.77;7.93;;;;;;;14.12;60.21;101442.88;4955512;28;20038;-68
2021/03/03 00:39:09;;;;;;;21.83;9.30;;;;;;;13.88;60.27;101386.44;4958003;28;20038;-68
2021/03/03 00:41:35;;;;;;;18.67;9.70;;;;;;;14.07;59.81;101417.59;4955882;28;20047;-69
2021/03/03 00:44:01;;;;;;;17.60;9.23;;;;;;;14.16;60.11;101433.59;4961253;28;20047;-70
2021/03/03 00:46:28;;;;;;;21.40;9.63;;;;;;;14.01;60.55;101435.59;4958566;28;20042;-69
2021/03/03 00:48:54;;;;;;;21.93;9.93;;;;;;;13.91;60.68;101436.44;4957865;28;20408;-69
2021/03/03 00:51:23;;;;;;;27.17;9.90;;;;;;;13.90;60.76;101438.41;4957801;28;20053;-70
2021/03/03 00:53:56;;;;;;;20.57;9.77;;;;;;;13.89;60.71;101442.34;4954095;28;20082;-72
2021/03/03 00:56:25;;;;;;;25.67;10.67;;;;;;;13.84;60.98;101450.75;4959327;28;20044;-72
2021/03/03 00:58:51;;;;;;;24.08;8.65;;;;;;;13.67;61.30;101456.63;4956606;28;20047;-71
2021/03/03 01:01:21;;;;;;;24.17;11.27;;;;;;;13.54;62.11;101448.78;4964137;28;20058;-74
2021/03/03 01:03:50;;;;;;;21.17;11.13;;;;;;;13.43;62.49;101449.88;4958931;28;20507;-75
2021/03/03 01:06:17;;;;;;;19.40;10.03;;;;;;;13.41;62.44;101436.13;4955544;28;20077;-77
2021/03/03 01:08:43;;;;;;;29.73;11.07;;;;;;;13.35;62.66;101442.00;4959283;28;20045;-77
2021/03/03 01:11:10;;;;;;;28.60;10.63;;;;;;;13.29;62.72;101441.16;4957577;28;20057;-77
2021/03/03 01:13:37;;;;;;;24.50;10.57;;;;;;;13.11;62.77;101419.19;4959409;28;20050;-77
2021/03/03 01:16:07;;;;;;;23.37;10.40;;;;;;;13.22;62.99;101443.34;4961277;28;20043;-73
2021/03/03 01:18:34;;;;;;;30.73;11.88;;;;;;;13.02;63.00;101427.28;4960022;28;20040;-73
2021/03/03 01:21:00;;;;;;;22.33;11.00;;;;;;;13.10;63.09;101439.97;4965642;28;20106;-75
2021/03/03 01:23:29;;;;;;;23.80;10.77;;;;;;;12.87;63.29;101428.09;4962222;28;20047;-75
2021/03/03 01:25:59;;;;;;;23.63;11.13;;;;;;;13.03;63.08;101443.88;4961343;28;20047;-73
2021/03/03 01:28:28;;;;;;;29.93;12.07;;;;;;;13.02;63.20;101444.13;4955398;28;20124;-73
2021/03/03 01:30:55;;;;;;;28.70;11.60;;;;;;;13.09;62.70;101441.06;4955938;28;20047;-73
2021/03/03 01:33:26;;;;;;;18.03;10.47;;;;;;;12.99;63.18;101442.72;4959482;28;20051;-72
2021/03/03 01:35:57;;;;;;;23.47;10.33;;;;;;;12.99;63.32;101442.72;4957669;28;20047;-73
2021/03/03 01:38:26;;;;;;;23.60;9.93;;;;;;;12.91;63.14;101445.22;4962085;28;20047;-71
2021/03/03 01:40:53;;;;;;;21.80;9.70;;;;;;;12.88;63.33;101432.56;4960333;28;20054;-72
2021/03/03 01:43:19;;;;;;;27.23;10.60;;;;;;;12.78;63.84;101435.34;4957875;28;20050;-71
2021/03/03 01:45:49;;;;;;;16.37;9.30;;;;;;;12.74;63.81;101432.25;4960493;28;20051;-71
2021/03/03 01:48:16;;;;;;;23.87;10.97;;;;;;;12.69;64.06;101435.03;4959379;28;20128;-77
2021/03/03 01:50:43;;;;;;;16.20;9.70;;;;;;;12.42;64.10;101398.75;4964111;28;20137;-77
2021/03/03 01:53:14;;;;;;;23.67;10.37;;;;;;;12.63;64.24;101440.88;4961033;28;20059;-77
2021/03/03 01:55:40;;;;;;;17.93;9.67;;;;;;;12.58;64.23;101430.50;4958624;28;20138;-76
2021/03/03 01:58:09;;;;;;;19.03;10.20;;;;;;;12.62;63.87;101437.25;4957851;28;20053;-74
2021/03/03 02:00:36;;;;;;;21.35;10.45;;;;;;;12.61;64.04;101435.53;4954765;28;20129;-68
2021/03/03 02:03:05;;;;;;;27.27;11.03;;;;;;;12.64;63.87;101435.00;4955040;28;20057;-69
2021/03/03 02:05:32;;;;;;;19.80;11.40;;;;;;;12.59;64.05;101448.16;4958479;28;20133;-69
2021/03/03 02:08:13;;;;;;;24.37;11.40;;;;;;;12.58;63.88;101436.13;4966359;28;20086;-69
2021/03/03 02:11:03;;;;;;;26.03;11.73;;;;;;;12.49;64.42;101438.56;4958623;28;20055;-71
2021/03/03 02:13:48;;;;;;;24.88;11.88;;;;;;;12.45;64.63;101447.81;4958499;28;20055;-71
2021/03/03 02:16:15;;;;;;;22.93;11.53;;;;;;;12.42;64.63;101437.97;4960701;28;20051;-69
2021/03/03 02:18:44;;;;;;;21.90;10.93;;;;;;;12.25;64.62;101421.34;4957763;28;20043;-70
2021/03/03 02:21:28;;;;;;;32.97;11.93;;;;;;;12.39;64.93;101444.13;4960327;28;20094;-69
2021/03/03 02:24:24;;;;;;;23.77;10.97;;;;;;;12.38;64.97;101448.03;4957207;28;20047;-67
2021/03/03 02:26:56;;;;;;;21.00;10.73;;;;;;;12.42;64.54;101443.59;4962808;28;20062;-67
2021/03/03 02:29:29;;;;;;;18.10;10.07;;;;;;;12.52;64.02;101443.63;4955998;28;20051;-67
2021/03/03 02:31:57;;;;;;;23.30;11.77;;;;;;;12.60;63.95;101444.22;4960413;28;20061;-67
2021/03/03 02:34:27;;;;;;;23.63;12.23;;;;;;;12.60;63.75;101453.47;4958752;28;20416;-68
2021/03/03 02:36:53;;;;;;;24.08;13.10;;;;;;;12.62;63.42;101442.00;4960202;28;20484;-73
2021/03/03 02:39:24;;;;;;;24.00;12.73;;;;;;;12.53;63.13;101422.91;4964671;28;20046;-71
2021/03/03 02:41:53;;;;;;;24.17;11.70;;;;;;;12.74;62.94;101449.06;4962485;28;20038;-70
2021/03/03 02:44:22;;;;;;;25.03;12.10;;;;;;;12.72;62.78;101440.09;4957775;28;20051;-71
2021/03/03 02:46:51;;;;;;;28.30;12.77;;;;;;;12.81;62.58;101448.81;4958750;28;20439;-71
2021/03/03 02:49:20;;;;;;;29.03;13.20;;;;;;;12.81;62.65;101444.03;4959770;28;20051;-69
2021/03/03 02:51:46;;;;;;;35.47;12.03;;;;;;;12.67;62.72;101428.00;4962341;28;20409;-64
2021/03/03 02:54:17;;;;;;;23.73;11.50;;;;;;;12.66;63.03;101443.16;4965077;28;20506;-63
2021/03/03 02:56:44;;;;;;;24.00;11.53;;;;;;;12.47;63.69;101452.00;4959898;28;20158;-65
2021/03/03 02:59:41;;;;;;;23.47;13.57;;;;;;;12.43;63.81;101445.25;4960395;28;20075;-69
2021/03/03 03:02:12;;;;;;;28.73;11.97;;;;;;;12.42;63.54;101437.97;4959509;28;20051;-70
2021/03/03 03:04:44;;;;;;;24.73;11.70;;;;;;;12.40;63.49;101437.41;4960316;28;20745;-68
2021/03/03 03:07:18;;;;;;;24.10;12.43;;;;;;;12.35;63.52;101437.38;4962608;28;20162;-69
2021/03/03 03:09:49;;;;;;;25.83;11.97;;;;;;;12.27;64.11;101435.94;4959142;28;20047;-68
2021/03/03 03:12:17;;;;;;;25.57;12.47;;;;;;;12.22;64.26;101438.69;4963134;28;20049;-65
2021/03/03 03:14:51;;;;;;;25.83;11.97;;;;;;;12.30;64.01;101434.53;4958323;28;20571;-64
2021/03/03 03:17:29;;;;;;;23.17;12.47;;;;;;;12.41;63.40;101430.69;4961531;28;20059;-66
2021/03/03 03:20:03;;;;;;;22.47;12.30;;;;;;;12.43;63.24;101428.44;4956665;28;20050;-66
2021/03/03 03:22:30;;;;;;;23.43;13.20;;;;;;;12.42;63.29;101420.34;4955151;28;20073;-67
2021/03/03 03:24:58;;;;;;;20.50;11.90;;;;;;;12.21;64.07;101408.19;4954722;28;20051;-65
2021/03/03 03:27:28;;;;;;;21.93;10.73;;;;;;;12.18;64.37;101420.75;4959342;28;20134;-66
2021/03/03 03:29:57;;;;;;;26.00;11.27;;;;;;;12.14;64.77;101413.19;4957800;28;20407;-66
2021/03/03 03:32:25;;;;;;;25.30;11.93;;;;;;;12.16;64.60;101416.53;4963942;28;20484;-67
2021/03/03 03:35:01;;;;;;;22.03;10.37;;;;;;;12.14;64.83;101425.22;4960949;28;20511;-67
2021/03/03 03:37:29;;;;;;;28.17;12.17;;;;;;;11.99;65.09;101411.94;4960675;28;20051;-67
2021/03/03 03:39:55;;;;;;;25.60;11.57;;;;;;;12.09;64.74;101426.00;4958446;28;20075;-70
2021/03/03 03:42:23;;;;;;;21.20;10.23;;;;;;;12.02;64.82;101414.19;4959000;28;20044;-70
2021/03/03 03:44:52;;;;;;;23.17;10.73;;;;;;;11.97;65.05;101419.78;4954637;28;20474;-64
2021/03/03 03:47:24;;;;;;;24.90;9.90;;;;;;;11.80;65.60;101407.84;4960292;28;20556;-63
2021/03/03 03:49:52;;;;;;;22.10;11.23;;;;;;;11.79;65.68;101411.75;4963007;28;20101;-66
2021/03/03 03:52:19;;;;;;;22.37;9.53;;;;;;;11.73;65.87;101416.47;4962116;28;20126;-65
2021/03/03 03:54:53;;;;;;;25.87;10.03;;;;;;;11.59;66.30;101413.28;4963004;28;20535;-64
2021/03/03 03:57:20;;;;;;;27.67;10.97;;;;;;;11.52;66.73;101411.78;4960265;28;20051;-65
2021/03/03 03:59:49;;;;;;;14.90;7.90;;;;;;;11.43;67.00;101407.81;4961516;28;20051;-73
2021/03/03 04:02:16;;;;;;;23.33;10.73;;;;;;;11.35;67.14;101411.91;4964434;28;20381;-74
2021/03/03 04:04:42;;;;;;;28.83;12.67;;;;;;;11.31;67.14;101407.97;4964537;28;20429;-73
2021/03/03 04:07:16;;;;;;;21.73;10.47;;;;;;;11.24;67.29;101404.53;4959114;28;20038;-73
2021/03/03 04:09:43;;;;;;;35.37;10.60;;;;;;;11.25;67.41;101407.09;4965187;28;20134;-79
2021/03/03 04:12:10;;;;;;;24.27;10.67;;;;;;;11.19;67.93;101407.31;4963053;28;20043;-77
2021/03/03 04:14:37;;;;;;;18.30;10.30;;;;;;;11.07;67.85;101397.09;4973756;28;20129;-73
2021/03/03 04:17:03;;;;;;;21.17;10.60;;;;;;;11.17;67.85;101406.72;4967221;28;20153;-69
2021/03/03 04:19:30;;;;;;;19.30;9.50;;;;;;;11.04;67.88;101389.28;4961618;28;20055;-68
2021/03/03 04:21:56;;;;;;;30.80;12.97;;;;;;;11.06;67.96;101394.59;4959156;28;20129;-68
2021/03/03 04:24:22;;;;;;;25.23;10.63;;;;;;;11.04;68.29;101403.25;4960545;28;20043;-69
2021/03/03 04:26:48;;;;;;;28.80;11.00;;;;;;;10.91;69.08;101400.84;4964126;28;20051;-69
2021/03/03 04:29:15;;;;;;;17.87;9.17;;;;;;;10.94;68.96;101399.47;4953975;28;20047;-73
2021/03/03 04:31:41;;;;;;;19.17;9.83;;;;;;;10.88;69.05;101396.63;4959182;28;20043;-69
2021/03/03 04:34:07;;;;;;;20.27;11.50;;;;;;;10.85;69.51;101396.31;4954011;28;20488;-71
2021/03/03 04:36:33;;;;;;;23.60;11.50;;;;;;;10.83;69.39;101387.34;4959601;28;20053;-72
2021/03/03 04:39:00;;;;;;;23.63;10.37;;;;;;;10.84;69.33;101394.63;4963702;28;20069;-69
2021/03/03 04:41:26;;;;;;;17.63;10.77;;;;;;;10.78;69.10;101368.56;4956053;28;20046;-68
2021/03/03 04:43:52;;;;;;;22.33;12.10;;;;;;;10.91;69.05;101386.88;4960406;28;20043;-69
2021/03/03 04:46:18;;;;;;;24.90;13.23;;;;;;;10.94;69.12;101377.97;4961797;28;20465;-68
2021/03/03 04:48:45;;;;;;;24.77;11.97;;;;;;;10.99;68.72;101374.38;4957597;28;20097;-70
2021/03/03 04:51:12;;;;;;;20.27;11.67;;;;;;;10.99;68.76;101371.59;4955075;28;20053;-70
2021/03/03 04:53:38;;;;;;;23.77;13.17;;;;;;;10.93;68.50;101348.31;4958004;28;20069;-69
2021/03/03 04:56:08;;;;;;;26.50;13.47;;;;;;;11.17;68.52;101370.38;4954898;28;20046;-67
2021/03/03 04:58:34;;;;;;;21.30;11.05;;;;;;;11.26;68.23;101374.38;4959478;28;20476;-72
2021/03/03 05:01:01;;;;;;;21.53;11.03;;;;;;;11.17;68.23;101359.19;4959139;28;21270;-66
2021/03/03 05:03:33;;;;;;;21.00;10.43;;;;;;;11.12;68.68;101374.81;4970815;28;20163;-70
2021/03/03 05:06:05;;;;;;;17.10;9.70;;;;;;;10.95;69.21;101368.47;4957324;28;20075;-68
2021/03/03 05:08:31;;;;;;;21.87;10.20;;;;;;;10.85;69.32;101376.75;4962201;28;20397;-68
2021/03/03 05:10:57;;;;;;;16.13;9.20;;;;;;;10.77;69.74;101372.47;4956538;28;20051;-67
2021/03/03 05:13:26;;;;;;;22.43;8.63;;;;;;;10.61;70.26;101363.06;4955184;28;20058;-68
2021/03/03 05:15:53;;;;;;;13.43;8.47;;;;;;;10.58;70.53;101379.50;4960066;28;20051;-68
2021/03/03 05:18:22;;;;;;;19.93;8.67;;;;;;;10.53;70.37;101382.22;4958871;28;20039;-69
2021/03/03 05:20:49;;;;;;;9.90;6.10;;;;;;;10.25;70.56;101346.94;4961565;28;20043;-68
2021/03/03 05:23:27;;;;;;;12.43;5.93;;;;;;;10.36;70.65;101376.72;4956774;28;20051;-68
2021/03/03 05:25:53;;;;;;;20.90;9.70;;;;;;;10.03;70.75;101344.97;4958564;28;20049;-69
2021/03/03 05:28:23;;;;;;;11.53;6.10;;;;;;;10.12;71.03;101381.63;4958767;28;20043;-69
2021/03/03 05:30:49;;;;;;;15.53;8.50;;;;;;;10.14;70.79;101377.50;4958362;28;20057;-69
2021/03/03 05:33:34;;;;;;;23.30;11.23;;;;;;;10.08;70.94;101378.53;4958718;28;20049;-70
2021/03/03 05:36:03;;;;;;;19.13;8.30;;;;;;;10.16;70.73;101372.50;4956215;28;20695;-75
2021/03/03 05:38:34;;;;;;;24.15;11.68;;;;;;;10.26;70.40;101371.00;4955031;28;20129;-74
2021/03/03 05:41:01;;;;;;;22.93;10.57;;;;;;;10.35;70.27;101375.03;4956819;28;20130;-76
2021/03/03 05:43:29;;;;;;;17.73;8.67;;;;;;;10.40;69.98;101372.31;4954722;28;20062;-74
2021/03/03 05:45:58;;;;;;;21.00;11.43;;;;;;;10.30;70.09;101356.25;4960197;28;20043;-75
2021/03/03 05:48:30;;;;;;;23.00;13.00;;;;;;;10.46;70.00;101370.41;4964872;28;20047;-78
2021/03/03 05:51:05;;;;;;;16.10;10.77;;;;;;;10.52;69.96;101363.78;4964354;28;20070;-67
2021/03/03 05:53:38;;;;;;;21.47;9.83;;;;;;;10.52;70.03;101370.22;4957431;28;20055;-66
2021/03/03 05:56:06;;;;;;;32.47;11.00;;;;;;;10.47;69.67;101353.41;4960042;28;20050;-67
2021/03/03 05:58:37;;;;;;;28.27;12.43;;;;;;;10.72;69.29;101369.63;4958357;28;20153;-67
2021/03/03 06:01:05;;;;;;;16.07;9.03;;;;;;;10.76;69.17;101367.13;4958243;28;20486;-67
2021/03/03 06:03:32;;;;;;;15.90;9.03;;;;;;;10.76;68.96;101367.97;4961089;28;20047;-68
2021/03/03 06:06:00;;;;;;;12.13;8.57;;;;;;;10.74;68.70;101349.81;4961103;28;20053;-68
2021/03/03 06:08:31;;;;;;;15.00;7.47;;;;;;;10.81;68.44;101365.25;4957110;28;20043;-73
2021/03/03 06:11:08;;;;;;;19.93;10.37;;;;;;;10.55;68.13;101311.03;4959754;28;20101;-69
2021/03/03 06:13:35;;;;;;;25.87;10.70;;;;;;;10.88;68.11;101367.84;4963136;28;20114;-68
2021/03/03 06:16:04;;;;;;;20.60;10.77;;;;;;;10.79;68.03;101355.44;4959443;28;20068;-71
2021/03/03 06:18:32;;;;;;;20.70;7.17;;;;;;;10.80;67.80;101358.00;4974975;28;20551;-66
2021/03/03 06:21:00;;;;;;;20.95;9.45;;;;;;;10.73;68.06;101371.28;4965194;28;20074;-65
2021/03/03 06:23:30;;;;;;;19.90;9.03;;;;;;;10.67;68.22;101367.63;4956832;28;20134;-67
2021/03/03 06:25:57;;;;;;;7.63;5.47;;;;;;;10.61;68.34;101374.25;4962773;28;20113;-65
2021/03/03 06:28:36;;;;;;;21.93;13.00;;;;;;;10.61;68.18;101368.66;4958707;28;20049;-65
2021/03/03 06:31:32;;;;;;;17.03;8.50;;;;;;;10.61;68.13;101365.03;4958209;28;20211;-70
2021/03/03 06:34:11;;;;;;;19.45;9.95;;;;;;;10.52;68.22;101364.63;4959749;28;20058;-69
2021/03/03 06:36:42;;;;;;;17.27;7.63;;;;;;;10.47;68.22;101361.78;4958696;28;20055;-63
2021/03/03 06:39:20;;;;;;;;;;;;;;;10.41;68.42;101360.03;4965852;28;20047;-66
2021/03/03 06:41:52;;;;;;;17.27;9.90;;;;;;;10.50;68.18;101364.06;4962651;28;19934;-61
2021/03/03 06:44:19;;;;;;;25.43;12.10;;;;;;;10.53;68.26;101352.38;4957358;28;20050;-60
2021/03/03 06:47:04;;;;;;;24.87;10.93;;;;;;;10.79;67.38;101363.81;4961949;28;20047;-59
2021/03/03 06:49:30;;;;;;;23.13;10.73;;;;;;;10.91;66.77;101356.16;4960745;28;20089;-60
2021/03/03 06:51:57;;;;;;;26.03;11.33;;;;;;;10.92;66.93;101355.03;4961988;28;20109;-62
2021/03/03 06:54:24;;;;;;;20.50;11.13;;;;;;;11.04;66.36;101355.72;4961230;28;20057;-64
2021/03/03 06:56:52;;;;;;;23.63;11.60;;;;;;;11.13;66.09;101353.28;4972378;28;20053;-69
2021/03/03 06:59:26;;;;;;;23.43;11.13;;;;;;;11.11;66.07;101347.09;4961306;28;20127;-70
2021/03/03 07:01:54;;;;;;;13.90;7.67;;;;;;;11.06;66.41;101353.50;4960000;28;20051;-63
2021/03/03 07:04:23;;;;;;;22.97;11.03;;;;;;;10.96;66.50;101352.56;4957462;28;20575;-60
2021/03/03 07:06:51;;;;;;;18.17;8.87;;;;;;;10.91;66.64;101354.19;4961095;28;20130;-62
2021/03/03 07:09:18;;;;;;;17.93;9.37;;;;;;;10.90;66.57;101354.44;4964998;28;20051;-62
2021/03/03 07:11:45;;;;;;;19.43;9.80;;;;;;;10.78;66.57;101345.38;4958235;28;20043;-60
2021/03/03 07:14:19;;;;;;;20.07;8.87;;;;;;;10.83;66.51;101362.19;4963174;28;20062;-60
2021/03/03 07:17:05;;;;;;;29.47;9.87;;;;;;;10.85;66.61;101362.78;4959599;28;20763;-60
2021/03/03 07:19:52;;;;;;;19.70;9.50;;;;;;;10.68;66.81;101352.53;4957100;28;20039;-61
2021/03/03 07:22:36;;;;;;;21.67;8.90;;;;;;;10.76;66.90;101365.19;4962871;28;20039;-60
2021/03/03 07:25:08;;;;;;;18.40;9.93;;;;;;;10.75;66.92;101362.66;4959294;28;20047;-62
2021/03/03 07:27:39;;;;;;;15.30;8.93;;;;;;;10.82;66.84;101366.09;4962722;28;20476;-62
2021/03/03 07:30:14;;;;;;;21.40;10.73;;;;;;;10.86;66.57;101353.28;4964365;28;20511;-60
2021/03/03 07:32:41;;;;;;;28.30;9.67;;;;;;;11.04;66.48;101377.22;4957754;28;20055;-61
2021/03/03 07:35:26;;;;;;;18.30;9.83;;;;;;;11.08;66.40;101382.03;4960437;28;20496;-61
2021/03/03 07:37:57;;;;;;;17.97;9.37;;;;;;;11.18;66.25;101372.91;4961429;28;20568;-61
2021/03/03 07:40:25;;;;;;;20.47;9.07;;;;;;;11.43;65.75;101375.09;4967495;28;20046;-61
2021/03/03 07:42:54;;;;;;;21.07;10.23;;;;;;;11.69;65.32;101383.69;4952934;28;20070;-61
2021/03/03 07:45:28;;;;;;;22.63;11.10;;;;;;;11.97;64.99;101383.38;4954057;28;20047;-62
2021/03/03 07:47:55;;;;;;;20.53;10.80;;;;;;;12.23;64.47;101377.94;4953264;28;20047;-61
2021/03/03 07:50:28;;;;;;;18.10;9.07;;;;;;;12.42;64.21;101381.13;4959649;28;20145;-63
2021/03/03 07:52:56;;;;;;;11.27;6.10;;;;;;;12.50;64.15;101377.78;4954613;28;20055;-60
2021/03/03 07:55:24;;;;;;;19.97;8.60;;;;;;;12.67;63.52;101374.78;4952974;28;20043;-62
2021/03/03 07:57:53;;;;;;;15.73;7.20;;;;;;;12.89;62.90;101381.03;4962803;28;20043;-63
2021/03/03 08:00:21;;;;;;;18.37;9.33;;;;;;;13.08;62.62;101383.28;4958623;28;20265;-61
2021/03/03 08:02:50;;;;;;;25.67;9.67;;;;;;;12.99;62.23;101319.38;4958050;28;20051;-63
2021/03/03 08:05:36;;;;;;;15.63;7.22;;;;;;;13.70;61.81;101385.06;4959280;28;20129;-62
2021/03/03 08:08:29;;;;;;;16.73;8.90;;;;;;;13.84;60.92;101393.75;4956128;28;20043;-63
2021/03/03 08:10:58;;;;;;;15.67;7.53;;;;;;;13.93;60.45;101392.06;4955996;28;20054;-62
2021/03/03 08:13:30;;;;;;;24.33;9.20;;;;;;;13.94;60.03;101386.16;4958602;28;20055;-61
2021/03/03 08:15:58;;;;;;;11.97;6.87;;;;;;;14.03;59.60;101394.03;4954565;28;20051;-61
2021/03/03 08:18:34;;;;;;;17.17;7.83;;;;;;;14.07;59.09;101395.97;4957610;28;20053;-61
2021/03/03 08:21:06;;;;;;;18.30;6.67;;;;;;;14.14;59.01;101402.13;4958218;28;20118;-61
2021/03/03 08:23:33;;;;;;;17.53;7.60;;;;;;;14.33;58.54;101408.00;4964283;28;20053;-60
2021/03/03 08:26:15;;;;;;;18.70;8.70;;;;;;;14.55;58.49;101401.22;4961593;28;20082;-62
2021/03/03 08:28:43;;;;;;;8.20;4.77;;;;;;;14.37;57.66;101381.00;4958985;28;20043;-60
2021/03/03 08:31:15;;;;;;;7.97;3.80;;;;;;;14.44;57.57;101401.22;4957505;28;20078;-62
2021/03/03 08:33:45;;;;;;;7.10;5.07;;;;;;;14.37;57.53;101395.06;4961115;28;20067;-62
2021/03/03 08:36:28;;;;;;;18.87;8.80;;;;;;;14.59;56.99;101397.53;4955736;28;20461;-61
2021/03/03 08:38:57;;;;;;;21.67;8.93;;;;;;;14.96;56.45;101399.06;4954250;28;20078;-61
2021/03/03 08:41:30;;;;;;;19.37;7.63;;;;;;;15.29;56.05;101403.09;4954972;28;20081;-60
2021/03/03 08:44:09;;;;;;;22.53;9.30;;;;;;;15.62;55.27;101403.41;4955370;28;20142;-60
2021/03/03 08:46:39;;;;;;;10.57;5.75;;;;;;;15.83;54.85;101399.31;4960548;28;20086;-62
2021/03/03 08:49:06;;;;;;;;;;;;;;;15.83;54.40;101404.13;4957230;28;20055;-62
2021/03/03 08:51:38;;;;;;;11.43;5.37;;;;;;;15.95;54.16;101409.34;4959763;28;19922;-62
2021/03/03 08:54:16;;;;;;;18.93;7.53;;;;;;;16.26;53.51;101399.44;4955286;28;20227;-61
2021/03/03 08:56:53;;;;;;;14.07;7.13;;;;;;;16.72;53.27;101398.09;4959222;28;20133;-62
2021/03/03 08:59:28;;;;;;;14.03;7.67;;;;;;;16.86;52.20;101389.75;4957817;28;20054;-61
2021/03/03 09:02:08;;;;;;;17.43;8.57;;;;;;;17.02;51.89;101396.84;4958024;28;20121;-61
2021/03/03 09:04:43;;;;;;;11.33;6.03;;;;;;;17.26;51.96;101392.00;4956717;28;20046;-62
2021/03/03 09:07:31;;;;;;;16.43;7.73;;;;;;;17.52;51.43;101394.41;4955476;28;20059;-60
2021/03/03 09:10:00;;;;;;;16.13;8.38;;;;;;;17.92;50.69;101387.28;4958598;28;20053;-61
2021/03/03 09:12:32;;;;;;;13.65;5.15;;;;;;;18.36;50.15;101394.38;4957806;28;20357;-61
2021/03/03 09:15:01;;;;;;;17.20;7.05;;;;;;;18.38;49.75;101391.22;4962308;28;20082;-62
2021/03/03 09:17:29;;;;;;;22.15;7.60;;;;;;;18.50;49.22;101400.03;4956163;28;20051;-64
2021/03/03 09:20:00;;;;;;;18.20;9.00;;;;;;;18.78;48.79;101403.72;4956345;28;20052;-61
2021/03/03 09:22:33;;;;;;;11.02;6.13;;;;;;;19.00;48.74;101411.44;4956851;28;20043;-61
2021/03/03 09:25:17;;;;;;;21.02;7.95;;;;;;;19.07;48.11;101389.22;4952424;28;20787;-61
2021/03/03 09:27:51;;;;;;;12.43;8.20;;;;;;;19.58;48.70;101405.00;4955277;28;20054;-61
2021/03/03 09:30:18;;;;;;;14.27;8.20;;;;;;;19.92;47.81;101403.63;4958901;28;20102;-60
2021/03/03 09:32:46;;;;;;;20.77;9.95;;;;;;;20.12;46.83;101390.91;4954868;28;20566;-63
2021/03/03 09:35:14;;;;;;;18.77;8.30;;;;;;;20.40;46.13;101400.06;4956117;28;20074;-60
2021/03/03 09:37:45;;;;;;;20.75;9.15;;;;;;;20.48;45.99;101393.59;4960962;28;20046;-61
2021/03/03 09:40:14;;;;;;;16.63;8.82;;;;;;;20.86;45.64;101393.09;4958885;28;20069;-59
2021/03/03 09:42:47;;;;;;;19.33;8.30;;;;;;;21.04;45.05;101393.97;4953319;28;20093;-59
2021/03/03 09:45:25;;;;;;;15.32;6.68;;;;;;;21.14;44.75;101398.50;4956228;28;20047;-60
2021/03/03 09:47:52;;;;;;;30.42;10.55;;;;;;;21.10;44.11;101383.28;4957419;28;20070;-62
2021/03/03 09:50:24;;;;;;;18.15;8.95;;;;;;;21.20;43.73;101375.28;4955907;28;20130;-61
2021/03/03 09:52:55;;;;;;;19.13;9.48;;;;;;;21.44;43.86;101389.03;4953665;28;20057;-61
2021/03/03 09:55:34;;;;;;;20.48;9.35;;;;;;;21.59;43.05;101386.84;4962428;28;20097;-64
2021/03/03 09:58:02;;;;;;;20.17;8.10;;;;;;;21.57;42.33;101387.16;4957644;28;20058;-64
2021/03/03 10:00:35;;;;;;;21.23;10.13;;;;;;;21.55;42.22;101385.84;4959290;28;20129;-63
2021/03/03 10:03:06;;;;;;;22.48;10.77;;;;;;;21.39;42.24;101383.50;4956391;28;20050;-64
2021/03/03 10:05:34;;;;;;;24.02;9.80;;;;;;;21.23;42.01;101382.28;4958751;28;20047;-64
2021/03/03 10:08:13;;;;;;;21.40;9.38;;;;;;;21.27;42.06;101380.47;4962223;28;20051;-65
2021/03/03 10:10:42;;;;;;;13.38;7.93;;;;;;;21.38;42.04;101379.00;4958713;28;20079;-64
2021/03/03 10:13:25;;;;;;;27.77;9.90;;;;;;;21.52;41.85;101356.91;4954197;28;20126;-65
2021/03/03 10:15:56;;;;;;;20.13;9.95;;;;;;;21.93;41.50;101378.25;4949215;28;20412;-63
2021/03/03 10:18:23;;;;;;;19.73;10.45;;;;;;;21.50;41.77;101239.91;4956406;28;20512;-66
2021/03/03 10:20:57;;;;;;;18.48;9.07;;;;;;;22.69;40.95;101373.84;4961345;28;20129;-65
2021/03/03 10:23:30;;;;;;;21.98;9.68;;;;;;;22.56;40.64;101369.22;4954271;28;20055;-65
2021/03/03 10:26:05;;;;;;;21.15;10.55;;;;;;;22.47;40.73;101372.94;4956056;28;20055;-62
2021/03/03 10:28:32;;;;;;;10.40;6.00;;;;;;;22.63;40.65;101380.88;4951677;28;20489;-60
2021/03/03 10:31:02;;;;;;;12.68;6.28;;;;;;;22.75;40.11;101375.31;4957391;28;20055;-61
2021/03/03 10:33:37;;;;;;;17.10;7.97;;;;;;;22.76;39.81;101365.59;4959601;28;20055;-60
2021/03/03 10:36:05;;;;;;;12.88;5.65;;;;;;;22.74;39.92;101353.72;4959463;28;20051;-60
2021/03/03 10:38:37;;;;;;;17.02;7.25;;;;;;;22.48;40.02;101351.84;4962383;28;20551;-59
2021/03/03 10:41:04;;;;;;;20.58;6.20;;;;;;;22.60;39.96;101353.97;4963193;28;20126;-61
2021/03/03 10:43:31;;;;;;;22.63;8.40;;;;;;;22.65;40.14;101336.69;4957649;28;20050;-59
2021/03/03 10:46:14;;;;;;;19.23;6.32;;;;;;;22.92;39.75;101334.50;4963056;28;20051;-59
2021/03/03 10:48:41;;;;;;;26.88;8.60;;;;;;;23.15;39.70;101323.66;4958880;28;20062;-59
2021/03/03 10:51:11;;;;;;;21.95;7.82;;;;;;;23.72;39.30;101348.63;4959528;28;20051;-59
2021/03/03 10:53:59;;;;;;;10.82;5.05;;;;;;;23.71;38.76;101341.28;4961382;28;20495;-60
2021/03/03 10:56:29;;;;;;;21.25;8.50;;;;;;;23.39;38.60;101349.44;4957273;28;20047;-58
2021/03/03 10:58:56;;;;;;;;;;;;;;;22.93;38.88;101334.19;4960090;28;20439;-59
2021/03/03 11:01:40;;;;;;;26.45;8.40;;;;;;;22.77;38.65;101330.25;4959704;28;19936;-58
2021/03/03 11:04:07;;;;;;;21.58;7.13;;;;;;;22.55;39.09;101322.84;4961821;28;20082;-59
2021/03/03 11:06:36;;;;;;;27.95;10.02;;;;;;;23.04;39.00;101322.38;4958240;28;20102;-59
2021/03/03 11:09:15;;;;;;;26.33;8.23;;;;;;;23.55;38.81;101320.25;4957719;28;20422;-59
2021/03/03 11:11:57;;;;;;;21.30;7.88;;;;;;;23.83;38.29;101315.66;4959847;28;20043;-60
2021/03/03 11:14:24;;;;;;;9.25;3.63;;;;;;;23.67;38.26;101310.94;4959517;28;20111;-60
2021/03/03 11:16:54;;;;;;;21.00;7.40;;;;;;;23.14;37.58;101307.72;4959513;28;20262;-59
2021/03/03 11:19:21;;;;;;;13.48;4.50;;;;;;;23.34;38.15;101315.41;4955465;28;20082;-61
2021/03/03 11:21:48;;;;;;;27.25;6.85;;;;;;;23.53;37.43;101306.38;4957446;28;20047;-59
2021/03/03 11:24:15;;;;;;;22.25;6.40;;;;;;;23.91;37.32;101287.38;4954403;28;20133;-59
2021/03/03 11:26:43;;;;;;;13.45;6.60;;;;;;;24.03;36.88;101304.50;4957986;28;20051;-59
2021/03/03 11:29:09;;;;;;;18.00;5.63;;;;;;;24.18;36.26;101305.84;4956636;28;20071;-58
2021/03/03 11:31:40;;;;;;;18.77;5.35;;;;;;;24.65;35.00;101288.25;4961450;28;20055;-59